createdAt,value
2022-08-17T00:02:24.135Z,89363.81
2022-08-17T00:04:52.614Z,89361.63
2022-08-17T00:07:19.464Z,89363.97
2022-08-17T00:09:46.265Z,89365.97
2022-08-17T00:12:42.721Z,89361.81
2022-08-17T00:15:00.128Z,89361.06
2022-08-17T00:17:27.168Z,89363.97
2022-08-17T00:19:53.938Z,89367.41
2022-08-17T00:22:33.653Z,89366.69
2022-08-17T00:25:04.237Z,89365.22
2022-08-17T00:27:31.095Z,89376.06
2022-08-17T00:29:57.867Z,89370.13
2022-08-17T00:33:22.741Z,89382.41
2022-08-17T00:35:15.532Z,89376.78
2022-08-17T00:37:42.591Z,89376.97
2022-08-17T00:40:13.586Z,89369.41
2022-08-17T00:42:41.190Z,89380.41
2022-08-17T00:45:11.234Z,89371.38
2022-08-17T00:47:38.268Z,89376.44
2022-08-17T00:50:07.084Z,89376.97
2022-08-17T00:52:39.391Z,89375.53
2022-08-17T00:55:07.922Z,89381.13
2022-08-17T00:57:42.808Z,89386.56
2022-08-17T01:00:16.926Z,89387.66
2022-08-17T01:02:46.663Z,89380.59
2022-08-17T01:05:24.063Z,89375.16
2022-08-17T01:07:53.994Z,89376.59
2022-08-17T01:10:58.658Z,89380.00
2022-08-17T01:13:19.191Z,89371.34
2022-08-17T01:15:59.320Z,89381.81
2022-08-17T01:18:26.975Z,89373.50
2022-08-17T01:20:56.998Z,89380.88
2022-08-17T01:23:26.334Z,89373.31
2022-08-17T01:25:57.397Z,89377.47
2022-08-17T01:28:52.461Z,89379.66
2022-08-17T01:31:15.053Z,89374.41
2022-08-17T01:33:42.084Z,89371.69
2022-08-17T01:36:09.634Z,89374.56
2022-08-17T01:38:41.219Z,89377.47
2022-08-17T01:41:15.728Z,89378.00
2022-08-17T01:43:51.086Z,89377.97
2022-08-17T01:46:24.357Z,89375.25
2022-08-17T01:48:51.220Z,89365.66
2022-08-17T01:51:18.887Z,89375.59
2022-08-17T01:53:52.787Z,89378.81
2022-08-17T01:56:23.440Z,89370.31
2022-08-17T01:58:50.990Z,89387.81
2022-08-17T02:01:20.759Z,89379.53
2022-08-17T02:03:53.455Z,89372.66
2022-08-17T02:06:27.510Z,89378.59
2022-08-17T02:09:02.824Z,89372.47
2022-08-17T02:11:35.182Z,89372.63
2022-08-17T02:14:03.016Z,89378.34
2022-08-17T02:16:37.299Z,89375.09
2022-08-17T02:19:07.619Z,89374.72
2022-08-17T02:21:35.331Z,89376.84
2022-08-17T02:24:03.348Z,89378.47
2022-08-17T02:26:30.586Z,89381.16
2022-08-17T02:28:57.488Z,89377.56
2022-08-17T02:31:24.325Z,89375.38
2022-08-17T02:34:01.265Z,89374.44
2022-08-17T02:36:34.248Z,89376.06
2022-08-17T02:39:11.507Z,89381.81
2022-08-17T02:41:39.597Z,89376.03
2022-08-17T02:44:07.560Z,89375.84
2022-08-17T02:46:34.790Z,89374.59
2022-08-17T02:49:01.661Z,89381.44
2022-08-17T02:51:28.511Z,89374.22
2022-08-17T02:54:03.909Z,89382.16
2022-08-17T02:56:43.077Z,89385.22
2022-08-17T02:59:10.263Z,89379.59
2022-08-17T03:01:37.159Z,89378.53
2022-08-17T03:04:04.209Z,89371.28
2022-08-17T03:06:31.161Z,89382.69
2022-08-17T03:08:58.028Z,89369.19
2022-08-17T03:11:24.926Z,89372.94
2022-08-17T03:13:51.753Z,89366.66
2022-08-17T03:16:18.567Z,89365.56
2022-08-17T03:18:45.374Z,89369.03
2022-08-17T03:21:12.252Z,89367.78
2022-08-17T03:23:39.050Z,89371.94
2022-08-17T03:26:06.016Z,89378.28
2022-08-17T03:28:39.191Z,89373.94
2022-08-17T03:31:06.962Z,89373.81
2022-08-17T03:33:33.995Z,89379.78
2022-08-17T03:36:00.891Z,89371.50
2022-08-17T03:38:27.953Z,89369.56
2022-08-17T03:40:59.102Z,89365.09
2022-08-17T03:43:29.203Z,89372.69
2022-08-17T03:45:56.455Z,89366.75
2022-08-17T03:48:24.163Z,89369.31
2022-08-17T03:50:51.568Z,89366.81
2022-08-17T03:53:18.335Z,89366.47
2022-08-17T03:55:45.147Z,89366.69
2022-08-17T03:58:12.103Z,89368.13
2022-08-17T04:00:39.686Z,89363.59
2022-08-17T04:03:06.717Z,89369.03
2022-08-17T04:05:36.015Z,89365.94
2022-08-17T04:08:03.008Z,89373.84
2022-08-17T04:10:33.876Z,89374.38
2022-08-17T04:13:05.779Z,89362.81
2022-08-17T04:15:32.589Z,89366.59
2022-08-17T04:18:00.117Z,89364.41
2022-08-17T04:20:27.074Z,89373.81
2022-08-17T04:22:56.804Z,89364.38
2022-08-17T04:25:24.124Z,89371.94
2022-08-17T04:27:51.959Z,89370.09
2022-08-17T04:30:18.935Z,89368.63
2022-08-17T04:33:05.366Z,89365.31
2022-08-17T04:35:41.107Z,89362.34
2022-08-17T04:38:09.817Z,89363.56
2022-08-17T04:40:36.731Z,89361.47
2022-08-17T04:43:06.794Z,89363.22
2022-08-17T04:45:34.713Z,89351.88
2022-08-17T04:48:01.689Z,89359.38
2022-08-17T04:50:28.600Z,89360.00
2022-08-17T04:52:55.589Z,89352.66
2022-08-17T04:55:22.656Z,89359.47
2022-08-17T04:57:49.597Z,89362.84
2022-08-17T05:00:16.556Z,89360.94
2022-08-17T05:02:50.685Z,89360.94
2022-08-17T05:05:19.947Z,89371.28
2022-08-17T05:07:48.038Z,89371.00
2022-08-17T05:10:14.801Z,89369.16
2022-08-17T05:12:41.669Z,89369.81
2022-08-17T05:15:12.780Z,89366.91
2022-08-17T05:17:39.561Z,89365.41
2022-08-17T05:20:06.985Z,89362.31
2022-08-17T05:22:33.995Z,89367.38
2022-08-17T05:25:02.722Z,89359.84
2022-08-17T05:27:35.056Z,89359.03
2022-08-17T05:30:03.390Z,89363.06
2022-08-17T05:32:38.921Z,89357.34
2022-08-17T05:35:07.534Z,89357.06
2022-08-17T05:37:34.390Z,89355.94
2022-08-17T05:40:01.231Z,89354.78
2022-08-17T05:42:28.232Z,89345.84
2022-08-17T05:44:57.847Z,89350.88
2022-08-17T05:47:26.269Z,89353.72
2022-08-17T05:49:53.903Z,89346.53
2022-08-17T05:52:41.855Z,89350.22
2022-08-17T05:55:32.383Z,89345.13
2022-08-17T05:58:21.138Z,89344.50
2022-08-17T06:00:52.691Z,89343.16
2022-08-17T06:03:19.479Z,89338.56
2022-08-17T06:06:01.460Z,89344.75
2022-08-17T06:08:51.432Z,89340.84
2022-08-17T06:11:53.721Z,89335.78
2022-08-17T06:14:48.227Z,89343.81
2022-08-17T06:17:21.051Z,89339.31
2022-08-17T06:19:49.503Z,89344.31
2022-08-17T06:22:20.513Z,89339.13
2022-08-17T06:24:54.147Z,89338.66
2022-08-17T06:27:23.684Z,89339.66
2022-08-17T06:30:04.079Z,89331.09
2022-08-17T06:32:31.104Z,89336.53
2022-08-17T06:35:00.313Z,89337.38
2022-08-17T06:37:30.307Z,89334.16
2022-08-17T06:40:15.186Z,89343.25
2022-08-17T06:43:02.206Z,89339.94
2022-08-17T06:45:42.008Z,89338.88
2022-08-17T06:48:20.826Z,89336.94
2022-08-17T06:50:53.140Z,89334.94
2022-08-17T06:53:38.464Z,89339.88
2022-08-17T06:56:10.101Z,89337.78
2022-08-17T06:58:40.202Z,89338.06
2022-08-17T07:01:17.396Z,89338.44
2022-08-17T07:03:46.779Z,89347.28
2022-08-17T07:06:15.888Z,89339.91
2022-08-17T07:08:54.881Z,89335.28
2022-08-17T07:11:32.157Z,89332.53
2022-08-17T07:14:17.647Z,89338.75
2022-08-17T07:16:47.462Z,89324.41
2022-08-17T07:19:16.795Z,89327.19
2022-08-17T07:21:57.796Z,89321.72
2022-08-17T07:24:32.164Z,89325.31
2022-08-17T07:27:08.837Z,89324.47
2022-08-17T07:29:40.931Z,89327.22
2022-08-17T07:32:10.766Z,89324.13
2022-08-17T07:35:07.170Z,89320.41
2022-08-17T07:37:42.985Z,89326.13
2022-08-17T07:40:21.903Z,89316.34
2022-08-17T07:43:21.969Z,89321.59
2022-08-17T07:45:59.277Z,89314.66
2022-08-17T07:48:27.145Z,89316.34
2022-08-17T07:50:55.193Z,89323.44
2022-08-17T07:53:24.349Z,89316.81
2022-08-17T07:55:52.895Z,89314.16
2022-08-17T07:58:24.034Z,89309.28
2022-08-17T08:01:10.625Z,89311.06
2022-08-17T08:03:43.255Z,89310.34
2022-08-17T08:06:25.619Z,89306.06
2022-08-17T08:08:55.798Z,89307.00
2022-08-17T08:11:35.340Z,89297.44
2022-08-17T08:14:28.633Z,89300.06
2022-08-17T08:16:59.284Z,89295.28
2022-08-17T08:19:27.137Z,89299.09
2022-08-17T08:22:10.270Z,89300.47
2022-08-17T08:24:55.323Z,89282.91
2022-08-17T08:27:44.787Z,89293.66
2022-08-17T08:30:20.753Z,89284.94
2022-08-17T08:33:08.971Z,89275.81
2022-08-17T08:36:59.298Z,89266.34
2022-08-17T08:39:20.911Z,89280.31
2022-08-17T08:42:29.029Z,89274.81
2022-08-17T08:45:20.764Z,89267.03
2022-08-17T08:48:45.949Z,89265.28
2022-08-17T08:51:13.904Z,89267.69
2022-08-17T08:54:06.549Z,89261.22
2022-08-17T08:57:11.525Z,89263.09
2022-08-17T08:59:44.236Z,89261.06
2022-08-17T09:02:23.455Z,89264.13
2022-08-17T09:05:14.300Z,89256.09
2022-08-17T09:07:41.424Z,89255.03
2022-08-17T09:10:14.368Z,89255.31
2022-08-17T09:12:56.214Z,89250.50
2022-08-17T09:15:22.929Z,89254.31
2022-08-17T09:19:01.894Z,89247.59
2022-08-17T09:20:53.461Z,89248.22
2022-08-17T09:23:39.492Z,89253.50
2022-08-17T09:26:16.256Z,89249.31
2022-08-17T09:28:49.784Z,89243.66
2022-08-17T09:31:21.812Z,89233.88
2022-08-17T09:33:49.752Z,89249.16
2022-08-17T09:36:23.370Z,89237.94
2022-08-17T09:39:00.557Z,89239.91
2022-08-17T09:41:54.247Z,89236.88
2022-08-17T09:44:29.773Z,89245.69
2022-08-17T09:47:08.440Z,89235.50
2022-08-17T09:49:40.762Z,89242.50
2022-08-17T09:52:17.840Z,89238.41
2022-08-17T09:54:45.667Z,89241.88
2022-08-17T09:57:46.909Z,89240.22
2022-08-17T10:00:20.686Z,89237.38
2022-08-17T10:03:15.425Z,89232.19
2022-08-17T10:06:26.907Z,89232.69
2022-08-17T10:09:02.735Z,89236.38
2022-08-17T10:11:45.532Z,89229.66
2022-08-17T10:14:37.824Z,89225.56
2022-08-17T10:17:24.312Z,89218.97
2022-08-17T10:20:12.728Z,89235.56
2022-08-17T10:22:51.188Z,89232.16
2022-08-17T10:25:23.597Z,89230.75
2022-08-17T10:28:00.223Z,89230.84
2022-08-17T10:30:31.807Z,89224.63
2022-08-17T10:33:06.904Z,89218.63
2022-08-17T10:36:00.866Z,89214.25
2022-08-17T10:38:45.754Z,89220.16
2022-08-17T10:41:48.437Z,89225.25
2022-08-17T10:44:41.295Z,89221.38
2022-08-17T10:47:14.956Z,89211.78
2022-08-17T10:49:46.402Z,89220.13
2022-08-17T10:52:28.443Z,89215.75
2022-08-17T10:54:58.223Z,89211.69
2022-08-17T10:57:31.479Z,89204.72
2022-08-17T10:59:59.926Z,89205.44
2022-08-17T11:02:32.060Z,89208.63
2022-08-17T11:05:17.379Z,89211.47
2022-08-17T11:07:44.192Z,89209.44
2022-08-17T11:10:29.171Z,89194.44
2022-08-17T11:13:17.010Z,89189.25
2022-08-17T11:15:46.799Z,89181.41
2022-08-17T11:18:25.769Z,89192.00
2022-08-17T11:21:10.418Z,89197.31
2022-08-17T11:24:02.926Z,89184.84
2022-08-17T11:26:36.954Z,89187.91
2022-08-17T11:29:19.182Z,89190.97
2022-08-17T11:32:05.555Z,89190.97
2022-08-17T11:34:33.513Z,89189.03
2022-08-17T11:37:15.480Z,89198.13
2022-08-17T11:40:09.762Z,89189.44
2022-08-17T11:43:14.393Z,89178.41
2022-08-17T11:46:17.889Z,89182.03
2022-08-17T11:48:54.608Z,89179.31
2022-08-17T11:51:24.161Z,89182.34
2022-08-17T11:53:59.810Z,89172.81
2022-08-17T11:56:39.449Z,89181.19
2022-08-17T11:59:32.073Z,89181.91
2022-08-17T12:02:02.123Z,89178.53
2022-08-17T12:04:32.467Z,89168.94
2022-08-17T12:07:20.719Z,89173.00
2022-08-17T12:09:51.290Z,89173.41
2022-08-17T12:12:23.099Z,89171.28
2022-08-17T12:15:11.178Z,89166.91
2022-08-17T12:17:41.184Z,89160.78
2022-08-17T12:20:47.520Z,89161.47
2022-08-17T12:23:36.505Z,89165.16
2022-08-17T12:26:18.801Z,89164.72
2022-08-17T12:28:48.980Z,89161.56
2022-08-17T12:31:49.751Z,89158.28
2022-08-17T12:34:29.221Z,89160.63
2022-08-17T12:37:01.554Z,89157.28
2022-08-17T12:39:30.257Z,89150.72
2022-08-17T12:42:02.819Z,89144.41
2022-08-17T12:44:37.081Z,89149.19
2022-08-17T12:47:22.339Z,89148.06
2022-08-17T12:49:54.985Z,89144.00
2022-08-17T12:52:28.133Z,89143.84
2022-08-17T12:54:59.623Z,89141.16
2022-08-17T12:57:31.976Z,89144.75
2022-08-17T13:00:08.994Z,89143.75
2022-08-17T13:02:44.484Z,89142.22
2022-08-17T13:05:23.692Z,89141.50
2022-08-17T13:07:51.740Z,89143.22
2022-08-17T13:10:33.072Z,89140.78
2022-08-17T13:13:01.828Z,89132.25
2022-08-17T13:15:44.465Z,89137.56
2022-08-17T13:18:50.143Z,89140.94
2022-08-17T13:21:19.889Z,89141.97
2022-08-17T13:24:04.020Z,89137.69
2022-08-17T13:26:53.422Z,89136.06
2022-08-17T13:29:51.364Z,89138.72
2022-08-17T13:32:38.272Z,89127.38
2022-08-17T13:35:39.362Z,89131.47
2022-08-17T13:38:33.429Z,89133.22
2022-08-17T13:41:00.236Z,89125.25
2022-08-17T13:43:45.403Z,89117.94
2022-08-17T13:46:29.831Z,89126.00
2022-08-17T13:49:06.092Z,89123.16
2022-08-17T13:51:36.263Z,89122.34
2022-08-17T13:54:05.633Z,89118.63
2022-08-17T13:56:51.231Z,89132.94
2022-08-17T13:59:53.442Z,89121.31
2022-08-17T14:02:21.000Z,89124.06
2022-08-17T14:04:48.471Z,89125.31
2022-08-17T14:07:15.246Z,89125.09
2022-08-17T14:09:51.985Z,89122.94
2022-08-17T14:12:22.786Z,89122.44
2022-08-17T14:14:49.594Z,89122.84
2022-08-17T14:17:16.669Z,89128.28
2022-08-17T14:19:43.589Z,89117.66
2022-08-17T14:22:24.303Z,89120.22
2022-08-17T14:24:51.135Z,89117.16
2022-08-17T14:27:19.640Z,89130.75
2022-08-17T14:29:47.463Z,89122.97
2022-08-17T14:32:19.949Z,89121.56
2022-08-17T14:34:47.827Z,89126.34
2022-08-17T14:37:14.872Z,89122.09
2022-08-17T14:39:41.834Z,89111.38
2022-08-17T14:42:08.978Z,89105.88
2022-08-17T14:44:35.930Z,89103.41
2022-08-17T14:47:02.765Z,89108.59
2022-08-17T14:49:29.644Z,89111.06
2022-08-17T14:51:56.529Z,89099.84
2022-08-17T14:54:32.777Z,89100.97
2022-08-17T14:57:23.398Z,89099.84
2022-08-17T14:59:53.195Z,89097.47
2022-08-17T15:02:29.276Z,89100.84
2022-08-17T15:05:05.438Z,89091.69
2022-08-17T15:07:32.420Z,89099.63
2022-08-17T15:10:01.412Z,89095.97
2022-08-17T15:12:32.694Z,89101.88
2022-08-17T15:15:00.881Z,89102.78
2022-08-17T15:17:43.908Z,89101.66
2022-08-17T15:20:23.043Z,89099.72
2022-08-17T15:22:50.733Z,89101.19
2022-08-17T15:25:19.071Z,89100.78
2022-08-17T15:27:46.321Z,89101.38
2022-08-17T15:30:14.010Z,89096.09
2022-08-17T15:32:45.872Z,89102.81
2022-08-17T15:35:26.817Z,89103.72
2022-08-17T15:38:11.223Z,89108.53
2022-08-17T15:40:42.873Z,89100.91
2022-08-17T15:43:12.996Z,89103.72
2022-08-17T15:45:40.237Z,89105.78
2022-08-17T15:48:07.806Z,89110.50
2022-08-17T15:50:34.848Z,89116.06
2022-08-17T15:53:03.152Z,89119.53
2022-08-17T15:55:31.778Z,89113.47
2022-08-17T15:57:59.144Z,89118.50
2022-08-17T16:00:26.208Z,89125.19
2022-08-17T16:03:45.756Z,89129.47
2022-08-17T16:05:40.774Z,89128.47
2022-08-17T16:08:08.063Z,89129.59
2022-08-17T16:10:36.170Z,89129.25
2022-08-17T16:13:04.488Z,89131.38
2022-08-17T16:15:32.309Z,89135.09
2022-08-17T16:17:59.680Z,89130.97
2022-08-17T16:20:27.094Z,89131.91
2022-08-17T16:22:54.966Z,89143.00
2022-08-17T16:25:51.913Z,89136.84
2022-08-17T16:28:13.971Z,89133.25
2022-08-17T16:30:41.284Z,89137.38
2022-08-17T16:33:10.182Z,89143.31
2022-08-17T16:35:37.277Z,89137.03
2022-08-17T16:38:04.166Z,89148.41
2022-08-17T16:40:35.966Z,89139.31
2022-08-17T16:43:04.628Z,89146.31
2022-08-17T16:45:31.786Z,89146.41
2022-08-17T16:47:58.616Z,89153.66
2022-08-17T16:50:25.629Z,89151.00
2022-08-17T16:52:52.751Z,89152.19
2022-08-17T16:55:22.222Z,89153.09
2022-08-17T16:57:52.216Z,89154.75
2022-08-17T17:00:19.057Z,89169.91
2022-08-17T17:02:47.987Z,89173.53
2022-08-17T17:05:39.513Z,89172.47
2022-08-17T17:08:06.546Z,89175.25
2022-08-17T17:10:40.263Z,89172.13
2022-08-17T17:13:19.264Z,89170.53
2022-08-17T17:16:00.319Z,89179.69
2022-08-17T17:18:39.398Z,89177.56
2022-08-17T17:21:12.881Z,89172.84
2022-08-17T17:23:47.562Z,89180.91
2022-08-17T17:26:17.219Z,89185.84
2022-08-17T17:29:22.999Z,89186.72
2022-08-17T17:32:45.094Z,89191.66
2022-08-17T17:35:20.765Z,89189.81
2022-08-17T17:37:48.437Z,89191.56
2022-08-17T17:40:33.284Z,89194.88
2022-08-17T17:43:20.374Z,89193.47
2022-08-17T17:45:53.874Z,89202.66
2022-08-17T17:48:20.730Z,89201.81
2022-08-17T17:52:02.846Z,89208.28
2022-08-17T17:54:29.874Z,89202.28
2022-08-17T17:57:18.542Z,89209.59
2022-08-17T17:59:46.025Z,89211.47
2022-08-17T18:02:32.435Z,89207.47
2022-08-17T18:05:08.781Z,89213.38
2022-08-17T18:07:44.601Z,89217.81
2022-08-17T18:10:34.580Z,89224.28
2022-08-17T18:13:04.206Z,89226.00
2022-08-17T18:15:40.482Z,89218.69
2022-08-17T18:18:16.546Z,89217.25
2022-08-17T18:20:53.223Z,89219.69
2022-08-17T18:23:27.662Z,89218.09
2022-08-17T18:25:56.013Z,89220.56
2022-08-17T18:28:22.801Z,89219.00
2022-08-17T18:31:21.551Z,89228.03
2022-08-17T18:34:35.827Z,89229.31
2022-08-17T18:36:59.566Z,89222.44
2022-08-17T18:39:28.610Z,89234.59
2022-08-17T18:41:57.687Z,89229.13
2022-08-17T18:44:28.751Z,89231.56
2022-08-17T18:47:19.189Z,89228.00
2022-08-17T18:49:49.877Z,89235.16
2022-08-17T18:52:21.567Z,89221.06
2022-08-17T18:55:06.737Z,89222.66
2022-08-17T18:57:36.778Z,89233.84
2022-08-17T19:00:13.633Z,89225.66
2022-08-17T19:03:01.097Z,89238.84
2022-08-17T19:05:34.525Z,89232.97
2022-08-17T19:08:21.614Z,89234.78
2022-08-17T19:10:52.816Z,89230.34
2022-08-17T19:13:35.587Z,89238.78
2022-08-17T19:16:13.908Z,89235.78
2022-08-17T19:19:09.620Z,89235.31
2022-08-17T19:21:42.346Z,89243.75
2022-08-17T19:24:11.868Z,89240.44
2022-08-17T19:26:56.765Z,89239.25
2022-08-17T19:29:55.936Z,89233.19
2022-08-17T19:32:29.199Z,89236.47
2022-08-17T19:34:56.909Z,89243.63
2022-08-17T19:37:42.492Z,89240.59
2022-08-17T19:40:52.281Z,89244.47
2022-08-17T19:43:36.545Z,89239.28
2022-08-17T19:46:19.635Z,89240.56
2022-08-17T19:48:46.582Z,89244.00
2022-08-17T19:51:26.591Z,89240.22
2022-08-17T19:54:13.533Z,89245.94
2022-08-17T19:57:01.678Z,89253.94
2022-08-17T19:59:47.410Z,89255.81
2022-08-17T20:02:25.195Z,89258.78
2022-08-17T20:04:57.000Z,89256.22
2022-08-17T20:07:37.188Z,89247.91
2022-08-17T20:10:10.264Z,89246.78
2022-08-17T20:12:39.614Z,89249.00
2022-08-17T20:15:17.173Z,89246.84
2022-08-17T20:17:47.228Z,89242.53
2022-08-17T20:20:29.858Z,89247.97
2022-08-17T20:23:11.827Z,89251.25
2022-08-17T20:25:44.706Z,89246.22
2022-08-17T20:28:27.286Z,89245.34
2022-08-17T20:30:55.855Z,89244.47
2022-08-17T20:33:32.666Z,89243.91
2022-08-17T20:36:02.282Z,89247.34
2022-08-17T20:38:42.565Z,89252.88
2022-08-17T20:41:22.280Z,89250.81
2022-08-17T20:44:01.318Z,89252.66
2022-08-17T20:46:37.399Z,89257.38
2022-08-17T20:49:22.614Z,89261.22
2022-08-17T20:52:01.193Z,89260.91
2022-08-17T20:54:43.282Z,89270.34
2022-08-17T20:57:32.961Z,89265.84
2022-08-17T21:00:19.920Z,89258.69
2022-08-17T21:02:51.746Z,89255.78
2022-08-17T21:05:31.681Z,89252.59
2022-08-17T21:08:10.828Z,89250.97
2022-08-17T21:10:38.460Z,89258.81
2022-08-17T21:13:11.235Z,89257.38
2022-08-17T21:15:51.836Z,89252.91
2022-08-17T21:18:39.842Z,89267.25
2022-08-17T21:21:40.090Z,89256.06
2022-08-17T21:24:25.693Z,89263.34
2022-08-17T21:27:10.747Z,89265.16
2022-08-17T21:29:53.697Z,89258.28
2022-08-17T21:32:30.298Z,89261.97
2022-08-17T21:35:07.006Z,89260.53
2022-08-17T21:37:42.322Z,89256.91
2022-08-17T21:40:15.076Z,89260.75
2022-08-17T21:42:52.188Z,89248.28
2022-08-17T21:45:24.911Z,89252.19
2022-08-17T21:48:20.985Z,89254.44
2022-08-17T21:51:15.281Z,89253.00
2022-08-17T21:53:52.197Z,89246.28
2022-08-17T21:56:33.137Z,89253.38
2022-08-17T21:59:05.739Z,89249.28
2022-08-17T22:01:39.485Z,89246.03
2022-08-17T22:04:20.503Z,89249.13
2022-08-17T22:06:57.335Z,89249.91
2022-08-17T22:09:45.468Z,89249.34
2022-08-17T22:12:18.303Z,89253.91
2022-08-17T22:15:03.785Z,89253.41
2022-08-17T22:17:42.955Z,89260.53
2022-08-17T22:20:17.588Z,89252.22
2022-08-17T22:22:50.000Z,89250.03
2022-08-17T22:25:22.496Z,89246.47
2022-08-17T22:27:52.605Z,89249.00
2022-08-17T22:30:35.734Z,89250.44
2022-08-17T22:33:37.825Z,89248.28
2022-08-17T22:36:30.120Z,89242.69
2022-08-17T22:39:10.071Z,89248.50
2022-08-17T22:41:52.158Z,89247.25
2022-08-17T22:44:35.286Z,89242.03
2022-08-17T22:47:24.402Z,89240.25
2022-08-17T22:50:02.006Z,89241.91
2022-08-17T22:52:36.467Z,89237.59
2022-08-17T22:55:14.297Z,89238.69
2022-08-17T22:57:47.000Z,89241.25
2022-08-17T23:00:31.834Z,89247.78
2022-08-17T23:03:24.120Z,89243.44
2022-08-17T23:06:11.370Z,89241.84
2022-08-17T23:08:39.569Z,89246.16
2022-08-17T23:11:06.664Z,89250.53
2022-08-17T23:13:33.480Z,89252.53
2022-08-17T23:16:00.624Z,89239.88
2022-08-17T23:18:27.493Z,89242.44
2022-08-17T23:20:54.533Z,89239.56
2022-08-17T23:23:23.695Z,89230.56
2022-08-17T23:25:50.813Z,89243.75
2022-08-17T23:28:17.713Z,89242.16
2022-08-17T23:30:45.636Z,89248.66
2022-08-17T23:33:33.740Z,89247.94
2022-08-17T23:36:01.531Z,89241.78
2022-08-17T23:38:28.639Z,89242.91
2022-08-17T23:40:56.477Z,89249.03
2022-08-17T23:46:07.489Z,89251.59
2022-08-17T23:48:36.728Z,89243.25
2022-08-17T23:51:18.899Z,89251.59
2022-08-17T23:53:50.171Z,89241.78
2022-08-17T23:56:17.654Z,89246.50
2022-08-17T23:58:44.730Z,89247.22
